sensor_id;sensor_type;location;lat;lon;timestamp;P1;durP1;ratioP1;P2;durP2;ratioP2
32469;SDS011;18925;48.356;10.864;2022-09-27T00:00:15;3.17;;;1.75;;
32469;SDS011;18925;48.356;10.864;2022-09-27T00:00:46;5.07;;;1.70;;
32469;SDS011;18925;48.356;10.864;2022-09-27T00:01:16;3.83;;;1.70;;
32469;SDS011;18925;48.356;10.864;2022-09-27T00:01:47;6.25;;;1.90;;
32469;SDS011;18925;48.356;10.864;2022-09-27T00:02:17;3.10;;;1.80;;
32469;SDS011;18925;48.356;10.864;2022-09-27T00:02:48;2.50;;;1.60;;
32469;SDS011;18925;48.356;10.864;2022-09-27T00:03:19;2.50;;;1.60;;
32469;SDS011;18925;48.356;10.864;2022-09-27T00:03:52;5.05;;;1.73;;
32469;SDS011;18925;48.356;10.864;2022-09-27T00:04:27;4.15;;;1.60;;
32469;SDS011;18925;48.356;10.864;2022-09-27T00:04:58;2.33;;;1.63;;
32469;SDS011;18925;48.356;10.864;2022-09-27T00:05:29;2.65;;;1.48;;
32469;SDS011;18925;48.356;10.864;2022-09-27T00:06:00;4.95;;;2.03;;
32469;SDS011;18925;48.356;10.864;2022-09-27T00:06:40;4.15;;;1.77;;
32469;SDS011;18925;48.356;10.864;2022-09-27T00:07:11;4.70;;;1.90;;
32469;SDS011;18925;48.356;10.864;2022-09-27T00:07:42;6.25;;;2.10;;
32469;SDS011;18925;48.356;10.864;2022-09-27T00:08:13;2.55;;;1.77;;
32469;SDS011;18925;48.356;10.864;2022-09-27T00:08:44;4.43;;;1.83;;
32469;SDS011;18925;48.356;10.864;2022-09-27T00:09:14;3.38;;;1.90;;
32469;SDS011;18925;48.356;10.864;2022-09-27T00:09:45;3.35;;;2.13;;
32469;SDS011;18925;48.356;10.864;2022-09-27T00:10:15;4.50;;;2.00;;
32469;SDS011;18925;48.356;10.864;2022-09-27T00:10:46;3.53;;;1.90;;
32469;SDS011;18925;48.356;10.864;2022-09-27T00:11:31;2.60;;;1.80;;
32469;SDS011;18925;48.356;10.864;2022-09-27T00:12:03;2.55;;;2.00;;
32469;SDS011;18925;48.356;10.864;2022-09-27T00:12:35;3.13;;;1.80;;
32469;SDS011;18925;48.356;10.864;2022-09-27T00:13:06;3.72;;;1.80;;
32469;SDS011;18925;48.356;10.864;2022-09-27T00:13:37;2.78;;;1.70;;
32469;SDS011;18925;48.356;10.864;2022-09-27T00:14:08;3.60;;;2.05;;
32469;SDS011;18925;48.356;10.864;2022-09-27T00:14:41;4.47;;;2.05;;
32469;SDS011;18925;48.356;10.864;2022-09-27T00:15:11;1.80;;;1.70;;
32469;SDS011;18925;48.356;10.864;2022-09-27T00:15:42;5.10;;;2.30;;
32469;SDS011;18925;48.356;10.864;2022-09-27T00:16:13;3.72;;;2.00;;
32469;SDS011;18925;48.356;10.864;2022-09-27T00:16:44;5.95;;;1.90;;
32469;SDS011;18925;48.356;10.864;2022-09-27T00:17:15;5.22;;;2.15;;
32469;SDS011;18925;48.356;10.864;2022-09-27T00:17:45;3.85;;;1.63;;
32469;SDS011;18925;48.356;10.864;2022-09-27T00:18:20;2.53;;;2.20;;
32469;SDS011;18925;48.356;10.864;2022-09-27T00:18:51;5.50;;;2.20;;
32469;SDS011;18925;48.356;10.864;2022-09-27T00:19:22;3.85;;;2.10;;
32469;SDS011;18925;48.356;10.864;2022-09-27T00:19:53;5.35;;;2.00;;
32469;SDS011;18925;48.356;10.864;2022-09-27T00:20:26;3.92;;;1.75;;
32469;SDS011;18925;48.356;10.864;2022-09-27T00:21:04;5.97;;;1.98;;
32469;SDS011;18925;48.356;10.864;2022-09-27T00:21:39;5.03;;;2.08;;
32469;SDS011;18925;48.356;10.864;2022-09-27T00:22:13;3.65;;;1.80;;
32469;SDS011;18925;48.356;10.864;2022-09-27T00:22:44;4.47;;;2.15;;
32469;SDS011;18925;48.356;10.864;2022-09-27T00:23:15;6.05;;;2.00;;
32469;SDS011;18925;48.356;10.864;2022-09-27T00:23:46;4.20;;;1.77;;
32469;SDS011;18925;48.356;10.864;2022-09-27T00:24:18;3.55;;;2.15;;
32469;SDS011;18925;48.356;10.864;2022-09-27T00:24:50;7.72;;;2.22;;
32469;SDS011;18925;48.356;10.864;2022-09-27T00:25:21;3.05;;;1.80;;
32469;SDS011;18925;48.356;10.864;2022-09-27T00:25:55;3.13;;;2.22;;
32469;SDS011;18925;48.356;10.864;2022-09-27T00:26:27;2.67;;;1.83;;
32469;SDS011;18925;48.356;10.864;2022-09-27T00:26:58;7.03;;;2.05;;
32469;SDS011;18925;48.356;10.864;2022-09-27T00:27:29;4.00;;;2.10;;
32469;SDS011;18925;48.356;10.864;2022-09-27T00:27:59;2.92;;;2.00;;
32469;SDS011;18925;48.356;10.864;2022-09-27T00:28:30;4.07;;;2.08;;
32469;SDS011;18925;48.356;10.864;2022-09-27T00:29:01;2.58;;;1.70;;
32469;SDS011;18925;48.356;10.864;2022-09-27T00:29:32;2.25;;;1.80;;
32469;SDS011;18925;48.356;10.864;2022-09-27T00:30:03;3.13;;;1.80;;
32469;SDS011;18925;48.356;10.864;2022-09-27T00:30:34;3.25;;;1.83;;
32469;SDS011;18925;48.356;10.864;2022-09-27T00:31:09;3.88;;;2.38;;
32469;SDS011;18925;48.356;10.864;2022-09-27T00:31:49;5.88;;;2.25;;
32469;SDS011;18925;48.356;10.864;2022-09-27T00:32:19;5.25;;;2.35;;
32469;SDS011;18925;48.356;10.864;2022-09-27T00:32:50;3.60;;;2.40;;
32469;SDS011;18925;48.356;10.864;2022-09-27T00:33:22;5.15;;;2.10;;
32469;SDS011;18925;48.356;10.864;2022-09-27T00:33:52;5.45;;;2.00;;
32469;SDS011;18925;48.356;10.864;2022-09-27T00:34:24;4.00;;;1.98;;
32469;SDS011;18925;48.356;10.864;2022-09-27T00:34:55;2.45;;;2.10;;
32469;SDS011;18925;48.356;10.864;2022-09-27T00:35:26;3.65;;;2.10;;
32469;SDS011;18925;48.356;10.864;2022-09-27T00:36:02;4.72;;;2.05;;
32469;SDS011;18925;48.356;10.864;2022-09-27T00:36:34;5.15;;;2.03;;
32469;SDS011;18925;48.356;10.864;2022-09-27T00:37:04;5.05;;;2.20;;
32469;SDS011;18925;48.356;10.864;2022-09-27T00:37:35;5.40;;;2.20;;
32469;SDS011;18925;48.356;10.864;2022-09-27T00:38:06;4.00;;;2.28;;
32469;SDS011;18925;48.356;10.864;2022-09-27T00:38:37;3.47;;;2.13;;
32469;SDS011;18925;48.356;10.864;2022-09-27T00:39:09;4.50;;;2.05;;
32469;SDS011;18925;48.356;10.864;2022-09-27T00:39:40;5.40;;;2.20;;
32469;SDS011;18925;48.356;10.864;2022-09-27T00:40:11;2.72;;;2.00;;
32469;SDS011;18925;48.356;10.864;2022-09-27T00:40:42;3.78;;;2.10;;
32469;SDS011;18925;48.356;10.864;2022-09-27T00:41:13;3.03;;;2.00;;
32469;SDS011;18925;48.356;10.864;2022-09-27T00:41:48;5.65;;;2.13;;
32469;SDS011;18925;48.356;10.864;2022-09-27T00:42:19;2.67;;;1.73;;
32469;SDS011;18925;48.356;10.864;2022-09-27T00:42:50;3.22;;;2.55;;
32469;SDS011;18925;48.356;10.864;2022-09-27T00:43:21;5.45;;;2.05;;
32469;SDS011;18925;48.356;10.864;2022-09-27T00:43:54;3.05;;;1.90;;
32469;SDS011;18925;48.356;10.864;2022-09-27T00:45:13;6.20;;;2.00;;
32469;SDS011;18925;48.356;10.864;2022-09-27T00:45:48;5.40;;;2.10;;
32469;SDS011;18925;48.356;10.864;2022-09-27T00:46:25;5.78;;;2.50;;
32469;SDS011;18925;48.356;10.864;2022-09-27T00:48:00;3.80;;;2.28;;
32469;SDS011;18925;48.356;10.864;2022-09-27T00:48:34;4.85;;;2.30;;
32469;SDS011;18925;48.356;10.864;2022-09-27T00:49:14;4.53;;;2.22;;
32469;SDS011;18925;48.356;10.864;2022-09-27T00:50:36;6.30;;;2.58;;
32469;SDS011;18925;48.356;10.864;2022-09-27T00:51:10;4.70;;;2.53;;
32469;SDS011;18925;48.356;10.864;2022-09-27T00:51:41;4.05;;;2.28;;
32469;SDS011;18925;48.356;10.864;2022-09-27T00:53:26;3.17;;;2.05;;
32469;SDS011;18925;48.356;10.864;2022-09-27T00:54:04;2.35;;;1.90;;
32469;SDS011;18925;48.356;10.864;2022-09-27T00:54:39;5.57;;;2.20;;
32469;SDS011;18925;48.356;10.864;2022-09-27T00:55:16;3.53;;;2.38;;
32469;SDS011;18925;48.356;10.864;2022-09-27T00:55:51;2.88;;;2.40;;
32469;SDS011;18925;48.356;10.864;2022-09-27T00:56:26;2.90;;;1.92;;
32469;SDS011;18925;48.356;10.864;2022-09-27T00:56:59;3.85;;;2.05;;
32469;SDS011;18925;48.356;10.864;2022-09-27T00:57:32;8.05;;;2.80;;
32469;SDS011;18925;48.356;10.864;2022-09-27T00:58:04;4.43;;;2.20;;
32469;SDS011;18925;48.356;10.864;2022-09-27T00:58:36;4.05;;;2.30;;
32469;SDS011;18925;48.356;10.864;2022-09-27T00:59:13;3.88;;;2.17;;
32469;SDS011;18925;48.356;10.864;2022-09-27T00:59:46;5.68;;;2.20;;
32469;SDS011;18925;48.356;10.864;2022-09-27T01:00:22;3.83;;;2.22;;
32469;SDS011;18925;48.356;10.864;2022-09-27T01:00:55;4.53;;;2.20;;
32469;SDS011;18925;48.356;10.864;2022-09-27T01:01:31;7.47;;;2.28;;
32469;SDS011;18925;48.356;10.864;2022-09-27T01:02:03;6.82;;;2.63;;
32469;SDS011;18925;48.356;10.864;2022-09-27T01:02:38;3.72;;;2.30;;
32469;SDS011;18925;48.356;10.864;2022-09-27T01:03:14;3.40;;;2.10;;
32469;SDS011;18925;48.356;10.864;2022-09-27T01:04:10;6.50;;;2.15;;
32469;SDS011;18925;48.356;10.864;2022-09-27T01:04:42;2.40;;;2.03;;
32469;SDS011;18925;48.356;10.864;2022-09-27T01:05:16;3.60;;;2.30;;
32469;SDS011;18925;48.356;10.864;2022-09-27T01:05:49;2.53;;;1.90;;
32469;SDS011;18925;48.356;10.864;2022-09-27T01:06:20;6.20;;;2.20;;
32469;SDS011;18925;48.356;10.864;2022-09-27T01:06:52;3.90;;;2.30;;
32469;SDS011;18925;48.356;10.864;2022-09-27T01:07:22;4.25;;;2.38;;
32469;SDS011;18925;48.356;10.864;2022-09-27T01:07:53;2.55;;;1.80;;
32469;SDS011;18925;48.356;10.864;2022-09-27T01:08:29;2.67;;;1.95;;
32469;SDS011;18925;48.356;10.864;2022-09-27T01:09:00;2.88;;;1.90;;
32469;SDS011;18925;48.356;10.864;2022-09-27T01:09:31;5.38;;;2.30;;
32469;SDS011;18925;48.356;10.864;2022-09-27T01:10:02;3.80;;;1.85;;
32469;SDS011;18925;48.356;10.864;2022-09-27T01:10:37;4.47;;;1.90;;
32469;SDS011;18925;48.356;10.864;2022-09-27T01:13:06;2.97;;;2.00;;
32469;SDS011;18925;48.356;10.864;2022-09-27T01:17:46;4.68;;;2.17;;
32469;SDS011;18925;48.356;10.864;2022-09-27T01:21:36;2.42;;;1.80;;
32469;SDS011;18925;48.356;10.864;2022-09-27T01:22:21;5.18;;;1.88;;
32469;SDS011;18925;48.356;10.864;2022-09-27T01:24:52;3.17;;;1.48;;
32469;SDS011;18925;48.356;10.864;2022-09-27T01:26:20;7.18;;;2.10;;
32469;SDS011;18925;48.356;10.864;2022-09-27T01:26:39;2.15;;;1.48;;
32469;SDS011;18925;48.356;10.864;2022-09-27T01:27:36;2.33;;;1.63;;
32469;SDS011;18925;48.356;10.864;2022-09-27T01:28:21;4.03;;;1.63;;
32469;SDS011;18925;48.356;10.864;2022-09-27T01:30:47;2.35;;;1.65;;
32469;SDS011;18925;48.356;10.864;2022-09-27T01:32:28;2.55;;;1.63;;
32469;SDS011;18925;48.356;10.864;2022-09-27T01:34:43;5.18;;;1.67;;
32469;SDS011;18925;48.356;10.864;2022-09-27T01:36:24;2.92;;;1.60;;
32469;SDS011;18925;48.356;10.864;2022-09-27T01:38:37;2.80;;;1.50;;
32469;SDS011;18925;48.356;10.864;2022-09-27T01:40:53;2.22;;;1.55;;
32469;SDS011;18925;48.356;10.864;2022-09-27T01:42:30;2.05;;;1.58;;
32469;SDS011;18925;48.356;10.864;2022-09-27T01:43:05;6.13;;;1.60;;
32469;SDS011;18925;48.356;10.864;2022-09-27T01:43:48;2.55;;;1.60;;
32469;SDS011;18925;48.356;10.864;2022-09-27T01:44:27;4.53;;;1.58;;
32469;SDS011;18925;48.356;10.864;2022-09-27T01:46:01;2.45;;;1.52;;
32469;SDS011;18925;48.356;10.864;2022-09-27T01:46:47;4.80;;;1.75;;
32469;SDS011;18925;48.356;10.864;2022-09-27T01:47:28;4.00;;;1.60;;
32469;SDS011;18925;48.356;10.864;2022-09-27T01:48:14;2.92;;;1.60;;
32469;SDS011;18925;48.356;10.864;2022-09-27T01:48:51;1.88;;;1.25;;
32469;SDS011;18925;48.356;10.864;2022-09-27T01:49:31;2.42;;;1.38;;
32469;SDS011;18925;48.356;10.864;2022-09-27T01:51:36;2.10;;;1.40;;
32469;SDS011;18925;48.356;10.864;2022-09-27T01:52:17;3.00;;;1.58;;
32469;SDS011;18925;48.356;10.864;2022-09-27T01:52:54;2.13;;;1.75;;
32469;SDS011;18925;48.356;10.864;2022-09-27T01:53:30;2.72;;;1.60;;
32469;SDS011;18925;48.356;10.864;2022-09-27T01:54:22;2.53;;;1.50;;
32469;SDS011;18925;48.356;10.864;2022-09-27T01:54:59;1.70;;;1.38;;
32469;SDS011;18925;48.356;10.864;2022-09-27T01:55:34;2.38;;;1.50;;
32469;SDS011;18925;48.356;10.864;2022-09-27T01:56:14;3.75;;;1.85;;
32469;SDS011;18925;48.356;10.864;2022-09-27T01:56:51;3.15;;;1.73;;
32469;SDS011;18925;48.356;10.864;2022-09-27T01:57:26;3.10;;;1.77;;
32469;SDS011;18925;48.356;10.864;2022-09-27T01:58:13;1.95;;;1.52;;
32469;SDS011;18925;48.356;10.864;2022-09-27T01:58:56;2.67;;;1.20;;
32469;SDS011;18925;48.356;10.864;2022-09-27T01:59:44;2.42;;;1.27;;
32469;SDS011;18925;48.356;10.864;2022-09-27T02:00:19;2.63;;;1.80;;
32469;SDS011;18925;48.356;10.864;2022-09-27T02:00:51;2.53;;;1.40;;
32469;SDS011;18925;48.356;10.864;2022-09-27T02:01:23;2.33;;;1.35;;
32469;SDS011;18925;48.356;10.864;2022-09-27T02:01:59;3.25;;;1.50;;
32469;SDS011;18925;48.356;10.864;2022-09-27T02:02:35;2.42;;;1.40;;
32469;SDS011;18925;48.356;10.864;2022-09-27T02:03:13;3.40;;;1.70;;
32469;SDS011;18925;48.356;10.864;2022-09-27T02:03:49;2.65;;;1.70;;
32469;SDS011;18925;48.356;10.864;2022-09-27T02:04:23;4.63;;;1.50;;
32469;SDS011;18925;48.356;10.864;2022-09-27T02:05:01;1.77;;;1.55;;
32469;SDS011;18925;48.356;10.864;2022-09-27T02:05:38;3.15;;;1.70;;
32469;SDS011;18925;48.356;10.864;2022-09-27T02:06:14;2.55;;;1.52;;
32469;SDS011;18925;48.356;10.864;2022-09-27T02:06:52;2.53;;;1.50;;
32469;SDS011;18925;48.356;10.864;2022-09-27T02:07:33;2.17;;;1.35;;
32469;SDS011;18925;48.356;10.864;2022-09-27T02:09:50;1.60;;;1.50;;
32469;SDS011;18925;48.356;10.864;2022-09-27T02:10:27;2.33;;;1.40;;
32469;SDS011;18925;48.356;10.864;2022-09-27T02:11:03;2.22;;;1.73;;
32469;SDS011;18925;48.356;10.864;2022-09-27T02:11:41;2.47;;;1.60;;
32469;SDS011;18925;48.356;10.864;2022-09-27T02:12:18;2.85;;;1.55;;
32469;SDS011;18925;48.356;10.864;2022-09-27T02:13:13;8.30;;;1.70;;
32469;SDS011;18925;48.356;10.864;2022-09-27T02:13:47;2.97;;;1.65;;
32469;SDS011;18925;48.356;10.864;2022-09-27T02:15:21;2.28;;;1.40;;
32469;SDS011;18925;48.356;10.864;2022-09-27T02:16:52;2.20;;;1.60;;
32469;SDS011;18925;48.356;10.864;2022-09-27T02:18:09;4.40;;;1.60;;
32469;SDS011;18925;48.356;10.864;2022-09-27T02:19:23;5.25;;;1.70;;
32469;SDS011;18925;48.356;10.864;2022-09-27T02:20:52;4.05;;;1.83;;
32469;SDS011;18925;48.356;10.864;2022-09-27T02:21:30;4.15;;;1.60;;
32469;SDS011;18925;48.356;10.864;2022-09-27T02:22:31;3.22;;;1.65;;
32469;SDS011;18925;48.356;10.864;2022-09-27T02:24:08;3.95;;;1.95;;
32469;SDS011;18925;48.356;10.864;2022-09-27T02:24:50;3.25;;;1.58;;
32469;SDS011;18925;48.356;10.864;2022-09-27T02:25:27;3.75;;;1.80;;
32469;SDS011;18925;48.356;10.864;2022-09-27T02:26:20;1.90;;;1.60;;
32469;SDS011;18925;48.356;10.864;2022-09-27T02:27:13;3.33;;;1.67;;
32469;SDS011;18925;48.356;10.864;2022-09-27T02:27:54;3.47;;;1.52;;
32469;SDS011;18925;48.356;10.864;2022-09-27T02:29:23;4.13;;;2.15;;
32469;SDS011;18925;48.356;10.864;2022-09-27T02:30:06;3.55;;;1.98;;
32469;SDS011;18925;48.356;10.864;2022-09-27T02:30:40;2.42;;;1.77;;
32469;SDS011;18925;48.356;10.864;2022-09-27T02:31:11;2.50;;;1.75;;
32469;SDS011;18925;48.356;10.864;2022-09-27T02:31:42;3.42;;;1.90;;
32469;SDS011;18925;48.356;10.864;2022-09-27T02:32:12;3.60;;;1.83;;
32469;SDS011;18925;48.356;10.864;2022-09-27T02:32:43;2.90;;;1.95;;
32469;SDS011;18925;48.356;10.864;2022-09-27T02:33:14;3.72;;;1.85;;
32469;SDS011;18925;48.356;10.864;2022-09-27T02:33:48;2.00;;;1.80;;
32469;SDS011;18925;48.356;10.864;2022-09-27T02:34:23;2.60;;;1.77;;
32469;SDS011;18925;48.356;10.864;2022-09-27T02:34:58;5.53;;;1.77;;
32469;SDS011;18925;48.356;10.864;2022-09-27T02:35:33;8.77;;;2.22;;
32469;SDS011;18925;48.356;10.864;2022-09-27T02:36:05;2.40;;;1.77;;
32469;SDS011;18925;48.356;10.864;2022-09-27T02:36:36;2.40;;;1.67;;
32469;SDS011;18925;48.356;10.864;2022-09-27T02:37:07;2.22;;;1.70;;
32469;SDS011;18925;48.356;10.864;2022-09-27T02:37:38;4.53;;;1.77;;
32469;SDS011;18925;48.356;10.864;2022-09-27T02:38:08;5.95;;;2.00;;
32469;SDS011;18925;48.356;10.864;2022-09-27T02:38:40;4.95;;;2.13;;
32469;SDS011;18925;48.356;10.864;2022-09-27T02:39:13;2.58;;;1.60;;
32469;SDS011;18925;48.356;10.864;2022-09-27T02:39:44;2.22;;;1.45;;
32469;SDS011;18925;48.356;10.864;2022-09-27T02:40:14;5.10;;;1.88;;
32469;SDS011;18925;48.356;10.864;2022-09-27T02:40:46;4.60;;;1.65;;
32469;SDS011;18925;48.356;10.864;2022-09-27T02:41:18;3.13;;;1.80;;
32469;SDS011;18925;48.356;10.864;2022-09-27T02:41:50;5.03;;;2.03;;
32469;SDS011;18925;48.356;10.864;2022-09-27T02:42:21;3.20;;;1.85;;
32469;SDS011;18925;48.356;10.864;2022-09-27T02:42:52;3.88;;;2.20;;
32469;SDS011;18925;48.356;10.864;2022-09-27T02:43:23;4.18;;;2.25;;
32469;SDS011;18925;48.356;10.864;2022-09-27T02:43:59;3.42;;;2.25;;
32469;SDS011;18925;48.356;10.864;2022-09-27T02:44:33;2.35;;;2.03;;
32469;SDS011;18925;48.356;10.864;2022-09-27T02:45:04;5.20;;;1.98;;
32469;SDS011;18925;48.356;10.864;2022-09-27T02:45:56;3.80;;;2.40;;
32469;SDS011;18925;48.356;10.864;2022-09-27T02:48:51;3.42;;;2.25;;
32469;SDS011;18925;48.356;10.864;2022-09-27T02:51:37;3.30;;;1.85;;
32469;SDS011;18925;48.356;10.864;2022-09-27T02:52:27;2.92;;;1.70;;
32469;SDS011;18925;48.356;10.864;2022-09-27T02:54:59;2.30;;;1.90;;
32469;SDS011;18925;48.356;10.864;2022-09-27T02:55:57;3.97;;;1.77;;
32469;SDS011;18925;48.356;10.864;2022-09-27T02:57:07;4.70;;;2.22;;
32469;SDS011;18925;48.356;10.864;2022-09-27T03:00:24;3.25;;;1.88;;
32469;SDS011;18925;48.356;10.864;2022-09-27T03:01:07;2.83;;;1.95;;
32469;SDS011;18925;48.356;10.864;2022-09-27T03:02:00;4.15;;;2.30;;
32469;SDS011;18925;48.356;10.864;2022-09-27T03:02:53;2.65;;;2.13;;
32469;SDS011;18925;48.356;10.864;2022-09-27T03:03:26;3.97;;;2.40;;
32469;SDS011;18925;48.356;10.864;2022-09-27T03:04:24;3.50;;;2.13;;
32469;SDS011;18925;48.356;10.864;2022-09-27T03:05:22;3.22;;;2.00;;
32469;SDS011;18925;48.356;10.864;2022-09-27T03:06:09;4.70;;;2.00;;
32469;SDS011;18925;48.356;10.864;2022-09-27T03:06:43;2.35;;;2.00;;
32469;SDS011;18925;48.356;10.864;2022-09-27T03:07:16;3.53;;;2.40;;
32469;SDS011;18925;48.356;10.864;2022-09-27T03:07:47;2.55;;;1.95;;
32469;SDS011;18925;48.356;10.864;2022-09-27T03:08:18;3.53;;;1.88;;
32469;SDS011;18925;48.356;10.864;2022-09-27T03:08:49;2.33;;;1.95;;
32469;SDS011;18925;48.356;10.864;2022-09-27T03:09:21;3.63;;;2.40;;
32469;SDS011;18925;48.356;10.864;2022-09-27T03:09:54;2.38;;;2.17;;
32469;SDS011;18925;48.356;10.864;2022-09-27T03:10:26;3.08;;;2.00;;
32469;SDS011;18925;48.356;10.864;2022-09-27T03:10:58;3.80;;;2.28;;
32469;SDS011;18925;48.356;10.864;2022-09-27T03:11:28;5.25;;;2.33;;
32469;SDS011;18925;48.356;10.864;2022-09-27T03:11:59;3.25;;;2.00;;
32469;SDS011;18925;48.356;10.864;2022-09-27T03:12:30;3.08;;;2.10;;
32469;SDS011;18925;48.356;10.864;2022-09-27T03:13:01;5.45;;;2.22;;
32469;SDS011;18925;48.356;10.864;2022-09-27T03:13:34;5.70;;;2.40;;
32469;SDS011;18925;48.356;10.864;2022-09-27T03:14:07;4.40;;;2.42;;
32469;SDS011;18925;48.356;10.864;2022-09-27T03:14:38;4.57;;;2.28;;
32469;SDS011;18925;48.356;10.864;2022-09-27T03:15:09;2.47;;;1.98;;
32469;SDS011;18925;48.356;10.864;2022-09-27T03:15:40;2.60;;;2.28;;
32469;SDS011;18925;48.356;10.864;2022-09-27T03:16:10;2.65;;;2.22;;
32469;SDS011;18925;48.356;10.864;2022-09-27T03:16:41;3.40;;;2.03;;
32469;SDS011;18925;48.356;10.864;2022-09-27T03:17:12;2.22;;;2.03;;
32469;SDS011;18925;48.356;10.864;2022-09-27T03:17:43;2.10;;;1.80;;
32469;SDS011;18925;48.356;10.864;2022-09-27T03:18:13;2.17;;;1.77;;
32469;SDS011;18925;48.356;10.864;2022-09-27T03:18:44;5.50;;;2.00;;
32469;SDS011;18925;48.356;10.864;2022-09-27T03:19:14;2.25;;;1.85;;
32469;SDS011;18925;48.356;10.864;2022-09-27T03:19:45;3.45;;;2.33;;
32469;SDS011;18925;48.356;10.864;2022-09-27T03:20:16;2.80;;;2.00;;
32469;SDS011;18925;48.356;10.864;2022-09-27T03:20:47;3.75;;;2.50;;
32469;SDS011;18925;48.356;10.864;2022-09-27T03:21:17;3.42;;;1.95;;
32469;SDS011;18925;48.356;10.864;2022-09-27T03:21:49;2.78;;;2.00;;
32469;SDS011;18925;48.356;10.864;2022-09-27T03:22:19;5.55;;;2.33;;
32469;SDS011;18925;48.356;10.864;2022-09-27T03:22:50;2.90;;;2.13;;
32469;SDS011;18925;48.356;10.864;2022-09-27T03:23:21;3.35;;;2.10;;
32469;SDS011;18925;48.356;10.864;2022-09-27T03:23:52;4.35;;;2.22;;
32469;SDS011;18925;48.356;10.864;2022-09-27T03:24:22;3.47;;;2.17;;
32469;SDS011;18925;48.356;10.864;2022-09-27T03:24:53;4.82;;;2.25;;
32469;SDS011;18925;48.356;10.864;2022-09-27T03:25:23;2.15;;;1.95;;
32469;SDS011;18925;48.356;10.864;2022-09-27T03:25:54;3.00;;;2.10;;
32469;SDS011;18925;48.356;10.864;2022-09-27T03:26:25;2.50;;;2.10;;
32469;SDS011;18925;48.356;10.864;2022-09-27T03:26:56;2.70;;;1.77;;
32469;SDS011;18925;48.356;10.864;2022-09-27T03:27:27;4.25;;;1.92;;
32469;SDS011;18925;48.356;10.864;2022-09-27T03:27:57;2.65;;;2.00;;
32469;SDS011;18925;48.356;10.864;2022-09-27T03:28:28;3.97;;;2.00;;
32469;SDS011;18925;48.356;10.864;2022-09-27T03:28:59;3.83;;;2.22;;
32469;SDS011;18925;48.356;10.864;2022-09-27T03:29:30;4.88;;;2.45;;
32469;SDS011;18925;48.356;10.864;2022-09-27T03:30:01;4.70;;;2.10;;
32469;SDS011;18925;48.356;10.864;2022-09-27T03:30:32;2.90;;;1.67;;
32469;SDS011;18925;48.356;10.864;2022-09-27T03:31:04;6.78;;;2.60;;
32469;SDS011;18925;48.356;10.864;2022-09-27T03:31:34;3.85;;;2.13;;
32469;SDS011;18925;48.356;10.864;2022-09-27T03:32:05;3.97;;;2.20;;
32469;SDS011;18925;48.356;10.864;2022-09-27T03:32:35;3.22;;;2.17;;
32469;SDS011;18925;48.356;10.864;2022-09-27T03:33:06;3.40;;;2.38;;
32469;SDS011;18925;48.356;10.864;2022-09-27T03:33:38;5.18;;;2.28;;
32469;SDS011;18925;48.356;10.864;2022-09-27T03:34:09;3.80;;;2.42;;
32469;SDS011;18925;48.356;10.864;2022-09-27T03:34:39;3.15;;;1.95;;
32469;SDS011;18925;48.356;10.864;2022-09-27T03:35:11;4.60;;;2.53;;
32469;SDS011;18925;48.356;10.864;2022-09-27T03:35:42;5.15;;;2.35;;
32469;SDS011;18925;48.356;10.864;2022-09-27T03:36:12;2.60;;;2.25;;
32469;SDS011;18925;48.356;10.864;2022-09-27T03:36:43;3.85;;;2.50;;
32469;SDS011;18925;48.356;10.864;2022-09-27T03:37:14;3.88;;;2.28;;
32469;SDS011;18925;48.356;10.864;2022-09-27T03:37:45;3.47;;;2.35;;
32469;SDS011;18925;48.356;10.864;2022-09-27T03:38:16;4.60;;;2.50;;
32469;SDS011;18925;48.356;10.864;2022-09-27T03:38:46;3.55;;;2.30;;
32469;SDS011;18925;48.356;10.864;2022-09-27T03:39:17;3.17;;;2.17;;
32469;SDS011;18925;48.356;10.864;2022-09-27T03:39:48;4.18;;;2.13;;
32469;SDS011;18925;48.356;10.864;2022-09-27T03:40:18;4.95;;;2.25;;
32469;SDS011;18925;48.356;10.864;2022-09-27T03:40:49;3.63;;;2.22;;
32469;SDS011;18925;48.356;10.864;2022-09-27T03:41:20;3.88;;;2.53;;
32469;SDS011;18925;48.356;10.864;2022-09-27T03:41:50;4.32;;;2.42;;
32469;SDS011;18925;48.356;10.864;2022-09-27T03:42:22;4.53;;;2.30;;
32469;SDS011;18925;48.356;10.864;2022-09-27T03:42:52;4.32;;;2.03;;
32469;SDS011;18925;48.356;10.864;2022-09-27T03:43:24;3.00;;;2.00;;
32469;SDS011;18925;48.356;10.864;2022-09-27T03:43:54;4.93;;;2.38;;
32469;SDS011;18925;48.356;10.864;2022-09-27T03:44:26;5.25;;;2.10;;
32469;SDS011;18925;48.356;10.864;2022-09-27T03:44:57;3.33;;;2.60;;
32469;SDS011;18925;48.356;10.864;2022-09-27T03:45:28;2.88;;;2.08;;
32469;SDS011;18925;48.356;10.864;2022-09-27T03:45:58;5.22;;;2.10;;
32469;SDS011;18925;48.356;10.864;2022-09-27T03:46:29;4.32;;;2.40;;
32469;SDS011;18925;48.356;10.864;2022-09-27T03:47:00;3.88;;;2.10;;
32469;SDS011;18925;48.356;10.864;2022-09-27T03:47:30;2.55;;;2.30;;
32469;SDS011;18925;48.356;10.864;2022-09-27T03:48:01;3.17;;;2.20;;
32469;SDS011;18925;48.356;10.864;2022-09-27T03:48:33;4.60;;;2.10;;
32469;SDS011;18925;48.356;10.864;2022-09-27T03:49:04;4.15;;;2.08;;
32469;SDS011;18925;48.356;10.864;2022-09-27T03:49:34;4.75;;;1.90;;
32469;SDS011;18925;48.356;10.864;2022-09-27T03:50:05;5.25;;;2.38;;
32469;SDS011;18925;48.356;10.864;2022-09-27T03:50:37;6.03;;;2.35;;
32469;SDS011;18925;48.356;10.864;2022-09-27T03:51:07;4.05;;;2.10;;
32469;SDS011;18925;48.356;10.864;2022-09-27T03:51:41;2.95;;;2.00;;
32469;SDS011;18925;48.356;10.864;2022-09-27T03:52:11;3.70;;;2.40;;
32469;SDS011;18925;48.356;10.864;2022-09-27T03:52:42;3.70;;;2.33;;
32469;SDS011;18925;48.356;10.864;2022-09-27T03:53:13;3.03;;;1.98;;
32469;SDS011;18925;48.356;10.864;2022-09-27T03:53:44;4.90;;;2.10;;
32469;SDS011;18925;48.356;10.864;2022-09-27T03:54:14;2.72;;;2.08;;
32469;SDS011;18925;48.356;10.864;2022-09-27T03:54:45;3.45;;;2.40;;
32469;SDS011;18925;48.356;10.864;2022-09-27T03:55:17;2.83;;;2.33;;
32469;SDS011;18925;48.356;10.864;2022-09-27T03:55:47;2.97;;;2.08;;
32469;SDS011;18925;48.356;10.864;2022-09-27T03:56:18;7.03;;;2.42;;
32469;SDS011;18925;48.356;10.864;2022-09-27T03:56:48;2.97;;;1.85;;
32469;SDS011;18925;48.356;10.864;2022-09-27T03:57:20;2.10;;;1.90;;
32469;SDS011;18925;48.356;10.864;2022-09-27T03:57:50;2.90;;;1.92;;
32469;SDS011;18925;48.356;10.864;2022-09-27T03:58:21;3.45;;;1.70;;
32469;SDS011;18925;48.356;10.864;2022-09-27T03:58:52;2.75;;;2.25;;
32469;SDS011;18925;48.356;10.864;2022-09-27T03:59:22;2.60;;;1.83;;
32469;SDS011;18925;48.356;10.864;2022-09-27T03:59:53;4.00;;;2.30;;
32469;SDS011;18925;48.356;10.864;2022-09-27T04:00:23;3.40;;;1.70;;
32469;SDS011;18925;48.356;10.864;2022-09-27T04:00:55;2.30;;;2.03;;
32469;SDS011;18925;48.356;10.864;2022-09-27T04:01:25;5.43;;;2.15;;
32469;SDS011;18925;48.356;10.864;2022-09-27T04:01:56;3.15;;;1.80;;
32469;SDS011;18925;48.356;10.864;2022-09-27T04:02:27;2.97;;;2.03;;
32469;SDS011;18925;48.356;10.864;2022-09-27T04:02:57;2.90;;;1.63;;
32469;SDS011;18925;48.356;10.864;2022-09-27T04:03:29;2.38;;;1.88;;
32469;SDS011;18925;48.356;10.864;2022-09-27T04:03:59;3.22;;;2.10;;
32469;SDS011;18925;48.356;10.864;2022-09-27T04:04:30;4.55;;;2.03;;
32469;SDS011;18925;48.356;10.864;2022-09-27T04:05:01;3.38;;;1.80;;
32469;SDS011;18925;48.356;10.864;2022-09-27T04:05:32;1.88;;;1.67;;
32469;SDS011;18925;48.356;10.864;2022-09-27T04:06:03;2.60;;;1.90;;
32469;SDS011;18925;48.356;10.864;2022-09-27T04:06:34;3.78;;;1.90;;